Main page
METAR-TAF:

METAR-TAF

Airports :

Kos International Airport

Kos, Greece

latitude: 36-47N, longitude: 027-04E, elevation: 129 m

Current weather observation

The report was made 44 minutes ago, at 13:50 UTC
Wind 2 kt from variable directions
Temperature 14°C
Humidity 72%
Pressure 1028 hPa
Visibility 10 km or more
Few clouds at a height of 1800 ft
Broken clouds at a height of 2500 ft

METAR: LGKO 211350Z VRB02KT 9999 FEW018 BKN025 14/09 Q1028

Time: 16:34 (14:34 UTC)

Forecast

The report was made 3 hours and 34 minutes ago, at 11:00 UTC
Forecast valid from 21 at 12 UTC to 22 at 12 UTC
Wind 8 kt from the South
Visibility 10 km or more
Few clouds at a height of 1800 ft
Scattered clouds at a height of 2500 ft
Probability 30% :
Temporary
from 22 at 03 UTC to 22 at 12 UTC
Visibility: 5000 m
Few clouds at a height of 1800 ft
Broken clouds at a height of 2500 ft
rain

TAF: LGKO 211100Z 2112/2212 18008KT 9999 FEW018 SCT025 PROB30 TEMPO 2203/2212 5000 RA FEW018 BKN025

Weather observations and forecasts of more than 4000 airports (METAR and TAF reports).

The available stations are represented by yellow and red dots on the map.

Hover mouse over dot to see the name of the station.

Then click to see weather observations and forecasts.

To change the map : click on the green buttons with a black cross to zoom in, on the green button with a dash to zoom out, or on the green arrows for adjacent maps.


METAR-TAF: